Costa Pacifica — ICJA — position and weather

sailwx.info

Track history (hours):
 
Tides and Currents Weather Stations Pressure Air Temp Water Temp Dewpoint Dewpoint Depression Visibility Wind Speed Wind Dir Waves Ship Positions

Costa Pacifica

Last reported at 2019-Jul-22 14:00 UTC. Time now 2019-Jul-22 14:18 UTC.
Position N 68°13' E 012°30'.

Length 290 m; draft 8.3 m.

Type: Ship. MMSI: 247258100.

Date/timePositionNaut miles runAvg speedWind from/ knotsBaromVisibWave heightAir tempDewpointWater temp
2019-Jul-22 14:00N 68°13' E 012°30'1019.3
2019-Jul-22 13:30N 68°05' E 012°15'1019.6
2019-Jul-22 13:00N 67°57' E 012°00'1019.7
2019-Jul-22 12:30N 67°48' E 011°45'1019.7
2019-Jul-22 12:00N 67°40' E 011°30'1019.6
2019-Jul-22 11:30N 67°32' E 011°18'1019.3
2019-Jul-22 11:00N 67°23' E 011°07'1019.2
2019-Jul-22 10:30N 67°14' E 010°56'1019.6
2019-Jul-22 09:59N 67°05' E 010°45'1019.4
2019-Jul-22 09:30N 66°57' E 010°34'919.5
2019-Jul-22 09:01N 66°48' E 010°24'1019.5
2019-Jul-22 08:31N 66°39' E 010°13'1019.5
2019-Jul-22 08:00N 66°30' E 010°03'1019.5
2019-Jul-22 07:30N 66°22' E 009°52'917.9
2019-Jul-22 07:00N 66°13' E 009°43'815.9
2019-Jul-22 06:30N 66°06' E 009°34'816.3
2019-Jul-22 06:00N 65°59' E 009°25'1019.5
2019-Jul-22 05:30N 65°50' E 009°15'919.2
2019-Jul-22 05:00N 65°42' E 009°05'1019.3
2019-Jul-22 04:30N 65°33' E 008°55'1819.3
2019-Jul-22 03:34N 65°16' E 008°36'2119.1
2019-Jul-22 02:27N 64°57' E 008°15'919.0
2019-Jul-22 02:00N 64°50' E 008°06'1019.2
2019-Jul-22 01:30N 64°41' E 007°56'919.2
2019-Jul-22 01:00N 64°32' E 007°47'1019.1
2019-Jul-22 00:30N 64°24' E 007°37'919.1
2019-Jul-22 00:00N 64°15' E 007°28'919.1
2019-Jul-21 23:31N 64°06' E 007°18'1019.2
2019-Jul-21 23:00N 63°58' E 007°09'1019.3
2019-Jul-21 22:30N 63°49' E 006°59'1019.1
2019-Jul-21 22:00N 63°40' E 006°50'1019.2
2019-Jul-21 21:30N 63°32' E 006°40'1019.2
2019-Jul-21 21:00N 63°23' E 006°31'1019.5
2019-Jul-21 20:30N 63°14' E 006°22'1019.8
2019-Jul-21 20:00N 63°05' E 006°13'1019.2
2019-Jul-21 19:30N 62°57' E 006°04'918.8
2019-Jul-21 19:00N 62°48' E 005°55'919.0
2019-Jul-21 18:30N 62°40' E 005°46'917.5
2019-Jul-21 18:00N 62°31' E 005°44'816.4
2019-Jul-21 17:30N 62°27' E 006°00'5 9.8
2019-Jul-21 17:01N 62°28' E 006°11'1 1.7
2019-Jul-21 16:30N 62°28' E 006°09'0 0.0
2019-Jul-21 16:00N 62°28' E 006°09'0 0.0
2019-Jul-21 15:30N 62°28' E 006°09'0 0.0
2019-Jul-21 15:00N 62°28' E 006°09'0 0.0
2019-Jul-21 14:29N 62°28' E 006°09'0 0.0
2019-Jul-21 13:59N 62°28' E 006°09'0 0.0
2019-Jul-21 13:29N 62°28' E 006°09'0 0.0
2019-Jul-21 12:59N 62°28' E 006°09'0 0.0
2019-Jul-21 12:29N 62°28' E 006°09'0 0.0
2019-Jul-21 11:58N 62°28' E 006°09'0 0.0
2019-Jul-21 11:28N 62°28' E 006°09'0 0.0
2019-Jul-21 10:58N 62°28' E 006°09'0 0.0
2019-Jul-21 10:28N 62°28' E 006°09'0 0.0
2019-Jul-21 09:58N 62°28' E 006°09'0 0.0
2019-Jul-21 09:30N 62°28' E 006°09'0 0.0
2019-Jul-21 09:00N 62°28' E 006°09'0 0.0
2019-Jul-21 08:30N 62°28' E 006°09'1 1.0
2019-Jul-21 08:00N 62°28' E 006°10'2 4.5
2019-Jul-21 07:30N 62°27' E 006°06'510.0
2019-Jul-21 07:00N 62°27' E 005°55'918.4
2019-Jul-21 06:30N 62°30' E 005°36'1019.1
2019-Jul-21 06:00N 62°25' E 005°20'1019.1
2019-Jul-21 05:29N 62°19' E 005°03'919.0
2019-Jul-21 04:59N 62°13' E 004°48'919.1
2019-Jul-21 04:30N 62°07' E 004°33'1019.2
2019-Jul-21 04:00N 62°01' E 004°17'918.6
2019-Jul-21 03:30N 61°52' E 004°11'1019.4
2019-Jul-21 03:00N 61°42' E 004°08'1019.7
2019-Jul-21 02:29N 61°32' E 004°07'1019.4
2019-Jul-21 02:00N 61°23' E 004°06'1019.6
2019-Jul-21 01:30N 61°13' E 004°05'1019.6
2019-Jul-21 01:00N 61°03' E 004°04'1019.6
2019-Jul-21 00:30N 60°53' E 004°05'1019.8
2019-Jul-21 00:00N 60°44' E 004°06'1019.5
2019-Jul-20 23:30N 60°34' E 004°07'1019.8
2019-Jul-20 23:00N 60°24' E 004°08'1019.8
2019-Jul-20 22:30N 60°14' E 004°09'1019.8
2019-Jul-20 22:00N 60°04' E 004°09'1019.8
2019-Jul-20 21:30N 59°54' E 004°09'1019.8
2019-Jul-20 21:00N 59°44' E 004°10'1019.8
2019-Jul-20 20:30N 59°34' E 004°10'1019.5
2019-Jul-20 20:00N 59°24' E 004°10'1019.3
2019-Jul-20 19:30N 59°15' E 004°10'919.0
2019-Jul-20 19:00N 59°05' E 004°10'918.2
2019-Jul-20 18:30N 58°57' E 004°19'918.6
2019-Jul-20 18:00N 58°51' E 004°31'918.4
2019-Jul-20 17:30N 58°44' E 004°43'918.6
2019-Jul-20 17:00N 58°37' E 004°55'918.9
2019-Jul-20 16:30N 58°30' E 005°07'1019.0
2019-Jul-20 16:00N 58°23' E 005°20'1019.1
2019-Jul-20 15:30N 58°16' E 005°33'1019.2
2019-Jul-20 15:00N 58°10' E 005°47'1019.4
2019-Jul-20 14:30N 58°04' E 006°01'1019.6
2019-Jul-20 14:00N 57°58' E 006°15'1019.5
2019-Jul-20 13:30N 57°52' E 006°29'918.7
2019-Jul-20 13:00N 57°47' E 006°44'1019.0
2019-Jul-20 12:30N 57°46' E 007°02'918.9
2019-Jul-20 12:00N 57°45' E 007°20'919.0
2019-Jul-20 11:30N 57°45' E 007°37'918.9
2019-Jul-20 11:00N 57°46' E 007°55'918.6
2019-Jul-20 10:30N 57°46' E 008°13'918.8
2019-Jul-20 10:00N 57°47' E 008°30'918.6
2019-Jul-20 09:30N 57°48' E 008°48'918.7
2019-Jul-20 09:00N 57°48' E 009°05'918.5
2019-Jul-20 08:30N 57°49' E 009°23'918.7
2019-Jul-20 08:00N 57°50' E 009°40'918.9
2019-Jul-20 07:30N 57°50' E 009°57'1019.1
2019-Jul-20 07:00N 57°51' E 010°15'918.9
2019-Jul-20 06:30N 57°51' E 010°33'917.1
2019-Jul-20 06:00N 57°48' E 010°48'918.5
2019-Jul-20 05:30N 57°41' E 011°00'918.8
2019-Jul-20 05:00N 57°35' E 011°14'1019.0
2019-Jul-20 04:30N 57°29' E 011°26'1019.7
2019-Jul-20 04:00N 57°20' E 011°33'918.4
2019-Jul-20 03:30N 57°11' E 011°38'917.7
2019-Jul-20 03:00N 57°02' E 011°43'918.2
2019-Jul-20 02:30N 56°54' E 011°49'918.0
2019-Jul-20 02:00N 56°45' E 011°54'918.2
2019-Jul-20 01:30N 56°37' E 011°46'918.6
2019-Jul-20 01:00N 56°29' E 011°37'918.3
2019-Jul-20 00:30N 56°21' E 011°29'918.3
2019-Jul-20 00:00N 56°13' E 011°21'918.4
2019-Jul-19 23:30N 56°07' E 011°10'1119.2
2019-Jul-19 22:57N 55°57' E 011°00'2817.2
2019-Jul-19 21:21N 55°30' E 010°53'618.3
2019-Jul-19 21:00N 55°25' E 010°60'816.5
2019-Jul-19 20:30N 55°17' E 011°04'917.2
2019-Jul-19 20:00N 55°08' E 011°03'918.5
2019-Jul-19 19:30N 54°59' E 011°01'816.4
2019-Jul-19 19:00N 54°52' E 010°53'816.9
2019-Jul-19 18:30N 54°44' E 010°53'816.7
2019-Jul-19 18:00N 54°38' E 010°44'917.9
2019-Jul-19 17:30N 54°32' E 010°32'816.1
2019-Jul-19 17:01N 54°29' E 010°19'611.7
2019-Jul-19 16:30N 54°25' E 010°13'5 9.5
2019-Jul-19 16:00N 54°20' E 010°10'1 1.6
2019-Jul-19 15:29N 54°20' E 010°09'0 0.0
2019-Jul-19 14:58N 54°20' E 010°09'0 0.0
2019-Jul-19 14:28N 54°20' E 010°09'0 0.0
2019-Jul-19 13:58N 54°20' E 010°09'0 0.0
2019-Jul-19 13:28N 54°20' E 010°09'0 0.0
2019-Jul-19 12:57N 54°20' E 010°09'0 0.0
2019-Jul-19 12:30N 54°20' E 010°09'0 0.0
2019-Jul-19 11:57N 54°20' E 010°09'0 0.0
2019-Jul-19 11:30N 54°20' E 010°09'0 0.0
2019-Jul-19 11:00N 54°20' E 010°09'0 0.0
2019-Jul-19 10:29N 54°20' E 010°09'0 0.0
2019-Jul-19 09:59N 54°20' E 010°09'0 0.0
2019-Jul-19 09:29N 54°20' E 010°09'0 0.0
2019-Jul-19 08:59N 54°20' E 010°09'0 0.0
2019-Jul-19 08:28N 54°20' E 010°09'0 0.0
2019-Jul-19 07:55N 54°20' E 010°09'0 0.0
2019-Jul-19 07:25N 54°20' E 010°09'0 0.0
2019-Jul-19 06:58N 54°20' E 010°09'0 0.0
2019-Jul-19 06:28N 54°20' E 010°09'0 0.0
2019-Jul-19 06:00N 54°20' E 010°09'0 0.7
2019-Jul-19 05:30N 54°20' E 010°09'3 5.7
2019-Jul-19 05:00N 54°22' E 010°11'613.0
2019-Jul-19 04:31N 54°28' E 010°16'714.0
2019-Jul-19 04:00N 54°32' E 010°26'918.6
2019-Jul-19 03:30N 54°35' E 010°41'919.0
2019-Jul-19 03:00N 54°36' E 010°57'917.6
2019-Jul-19 02:30N 54°36' E 011°13'918.1
2019-Jul-19 02:01N 54°32' E 011°26'919.0
2019-Jul-19 01:31N 54°28' E 011°41'918.8
2019-Jul-19 01:01N 54°26' E 011°57'916.9
2019-Jul-19 00:30N 54°29' E 012°11'917.6
2019-Jul-19 00:01N 54°38' E 012°15'918.8
2019-Jul-18 23:31N 54°42' E 012°29'918.2
2019-Jul-18 23:01N 54°48' E 012°42'918.1
2019-Jul-18 22:31N 54°51' E 012°57'918.6
2019-Jul-18 22:01N 54°54' E 013°12'918.9
2019-Jul-18 21:31N 54°58' E 013°27'918.7
2019-Jul-18 21:01N 55°01' E 013°43'918.5
2019-Jul-18 20:31N 55°04' E 013°58'918.2
2019-Jul-18 20:01N 55°10' E 014°10'918.7
2019-Jul-18 19:31N 55°17' E 014°20'918.7
2019-Jul-18 19:01N 55°24' E 014°32'918.6
2019-Jul-18 18:30N 55°29' E 014°45'918.4
2019-Jul-18 18:01N 55°34' E 014°58'918.4
2019-Jul-18 17:30N 55°39' E 015°12'917.7
2019-Jul-18 17:00N 55°43' E 015°26'917.5
2019-Jul-18 16:30N 55°47' E 015°40'917.6
2019-Jul-18 16:00N 55°52' E 015°53'917.7
2019-Jul-18 15:31N 55°56' E 016°07'816.6
2019-Jul-18 15:01N 56°00' E 016°20'714.7
2019-Jul-18 14:30N 56°05' E 016°31'714.5
2019-Jul-18 14:00N 56°09' E 016°41'714.2
2019-Jul-18 13:31N 56°15' E 016°48'714.4
2019-Jul-18 13:00N 56°21' E 016°54'714.3
2019-Jul-18 12:31N 56°28' E 016°59'714.5
2019-Jul-18 12:00N 56°35' E 017°04'1514.4
2019-Jul-18 10:59N 56°48' E 017°14'5614.9
2019-Jul-18 07:13N 57°40' E 017°54'1115.3
2019-Jul-18 06:31N 57°49' E 018°04'315.5
2019-Jul-18 06:19N 57°52' E 018°08'515.7
2019-Jul-18 06:00N 57°56' E 018°12'915.7
2019-Jul-18 05:27N 58°04' E 018°20'715.3
2019-Jul-18 04:59N 58°10' E 018°27'715.3
2019-Jul-18 04:30N 58°16' E 018°34'815.2
2019-Jul-18 04:00N 58°23' E 018°42'915.0
2019-Jul-18 03:26N 58°30' E 018°50'2515.1
2019-Jul-18 01:45N 58°52' E 019°16'1115.6
2019-Jul-18 01:03N 59°01' E 019°27'415.6
2019-Jul-18 00:46N 59°05' E 019°31'615.2
2019-Jul-18 00:23N 59°10' E 019°37'715.0
2019-Jul-17 23:56N 59°16' E 019°44'1115.1
2019-Jul-17 23:11N 59°26' E 019°54'214.6
2019-Jul-17 23:01N 59°28' E 019°56'815.0
2019-Jul-17 22:29N 59°36' E 019°58'814.9
2019-Jul-17 21:55N 59°43' E 019°48'615.0
2019-Jul-17 21:30N 59°46' E 019°38'815.1
2019-Jul-17 21:00N 59°46' E 019°23'713.9
2019-Jul-17 20:30N 59°44' E 019°10'816.1
2019-Jul-17 20:00N 59°40' E 018°56'510.6
2019-Jul-17 19:30N 59°37' E 018°48'611.6
2019-Jul-17 18:58N 59°34' E 018°37'5 9.5
2019-Jul-17 18:27N 59°31' E 018°30'511.1
2019-Jul-17 18:00N 59°27' E 018°24'5 9.3
2019-Jul-17 17:31N 59°22' E 018°27'4 8.5
2019-Jul-17 17:00N 59°23' E 018°19'611.2
2019-Jul-17 16:30N 59°19' E 018°10'2 3.7
2019-Jul-17 15:59N 59°19' E 018°06'0 0.0
2019-Jul-17 15:29N 59°19' E 018°06'0 0.0
2019-Jul-17 14:59N 59°19' E 018°06'0 0.0
2019-Jul-17 14:25N 59°19' E 018°06'0 0.0
2019-Jul-17 13:58N 59°19' E 018°06'0 0.0
2019-Jul-17 13:30N 59°19' E 018°06'0 0.0
2019-Jul-17 12:58N 59°19' E 018°06'0 0.0
2019-Jul-17 12:28N 59°19' E 018°06'0 0.0
2019-Jul-17 12:00N 59°19' E 018°06'0 0.0
2019-Jul-17 11:30N 59°19' E 018°06'0 0.0
2019-Jul-17 11:00N 59°19' E 018°06'0 0.0
2019-Jul-17 10:30N 59°19' E 018°06'0 0.0
2019-Jul-17 10:00N 59°19' E 018°06'0 0.0
2019-Jul-17 09:29N 59°19' E 018°06'0 0.0
2019-Jul-17 08:59N 59°19' E 018°06'0 0.0
2019-Jul-17 08:29N 59°19' E 018°06'0 0.0
2019-Jul-17 07:59N 59°19' E 018°06'0 0.0
2019-Jul-17 07:28N 59°19' E 018°06'0 0.0
2019-Jul-17 06:58N 59°19' E 018°06'0 0.4
2019-Jul-17 06:30N 59°19' E 018°06'4 8.5
2019-Jul-17 06:00N 59°21' E 018°14'510.3
2019-Jul-17 05:30N 59°22' E 018°24'3 5.1
2019-Jul-17 05:00N 59°25' E 018°25'4 8.9
2019-Jul-17 04:30N 59°29' E 018°27'510.0
2019-Jul-17 04:00N 59°32' E 018°34'510.3
2019-Jul-17 03:30N 59°35' E 018°43'612.2
2019-Jul-17 03:00N 59°38' E 018°53'611.2
2019-Jul-17 02:27N 59°42' E 019°02'818.0
2019-Jul-17 02:01N 59°45' E 019°17'713.4
2019-Jul-17 01:29N 59°47' E 019°31'1016.9
2019-Jul-17 00:53N 59°45' E 019°50'918.4
2019-Jul-17 00:25N 59°38' E 020°02'1417.7
2019-Jul-16 23:38N 59°35' E 020°28'1718.7
2019-Jul-16 22:43N 59°31' E 021°01'418.0
2019-Jul-16 22:31N 59°29' E 021°07'1017.7
2019-Jul-16 21:56N 59°21' E 021°20'819.0
2019-Jul-16 21:30N 59°23' E 021°36'1019.2
2019-Jul-16 21:01N 59°27' E 021°53'1119.1
2019-Jul-16 20:26N 59°26' E 022°15'818.2
2019-Jul-16 20:00N 59°29' E 022°29'919.0
2019-Jul-16 19:30N 59°33' E 022°46'1019.4
2019-Jul-16 19:00N 59°36' E 023°04'1019.3
2019-Jul-16 18:31N 59°38' E 023°23'1019.1
2019-Jul-16 18:00N 59°41' E 023°41'1019.1
2019-Jul-16 17:31N 59°44' E 023°59'1019.3
2019-Jul-16 17:00N 59°48' E 024°16'1019.1
2019-Jul-16 16:31N 59°53' E 024°33'918.9
2019-Jul-16 16:01N 59°58' E 024°49'612.2
2019-Jul-16 15:30N 60°03' E 024°54'611.3
2019-Jul-16 15:00N 60°09' E 024°55'0 0.3
2019-Jul-16 14:28N 60°09' E 024°55'0 0.0
2019-Jul-16 13:58N 60°09' E 024°55'0 0.2
2019-Jul-16 13:38N 60°09' E 024°55'0 0.3
2019-Jul-16 13:32N 60°09' E 024°55'0 1.9
2019-Jul-16 13:30N 60°09' E 024°55'0 0.0
2019-Jul-16 13:00N 60°09' E 024°55'0 0.2
2019-Jul-16 12:46N 60°09' E 024°55'0 0.2
2019-Jul-16 12:30N 60°09' E 024°55'0 0.0
2019-Jul-16 12:00N 60°09' E 024°55'0 0.0
2019-Jul-16 11:29N 60°09' E 024°55'0 0.0
2019-Jul-16 10:59N 60°09' E 024°55'0 0.0
2019-Jul-16 10:29N 60°09' E 024°55'0 0.0
2019-Jul-16 09:59N 60°09' E 024°55'0 0.0
2019-Jul-16 09:29N 60°09' E 024°55'0 0.0
2019-Jul-16 08:58N 60°09' E 024°55'0 0.0
2019-Jul-16 08:28N 60°09' E 024°55'0 0.0
2019-Jul-16 07:58N 60°09' E 024°55'0 0.0
2019-Jul-16 07:28N 60°09' E 024°55'0 0.0
2019-Jul-16 07:01N 60°09' E 024°55'0 0.0
2019-Jul-16 06:30N 60°09' E 024°55'0 0.0
2019-Jul-16 06:00N 60°09' E 024°55'0 0.0
2019-Jul-16 05:30N 60°09' E 024°55'0 0.0
2019-Jul-16 05:00N 60°09' E 024°55'0 0.0
2019-Jul-16 04:30N 60°09' E 024°55'1 1.6
2019-Jul-16 04:00N 60°08' E 024°54'611.9
2019-Jul-16 03:30N 60°02' E 024°55'714.5
2019-Jul-16 03:01N 59°57' E 025°04'918.9
2019-Jul-16 02:31N 59°55' E 025°23'918.5
2019-Jul-16 02:00N 59°55' E 025°41'815.4
2019-Jul-16 01:30N 59°57' E 025°56'813.7
2019-Jul-16 00:56N 59°59' E 026°11'613.5
2019-Jul-16 00:30N 59°60' E 026°23'713.3
2019-Jul-16 00:00N 60°01' E 026°36'713.5
2019-Jul-15 23:30N 60°00' E 026°49'713.3
2019-Jul-15 23:00N 59°59' E 027°02'713.5
2019-Jul-15 22:30N 60°03' E 027°14'713.6
2019-Jul-15 22:00N 60°06' E 027°25'713.4
2019-Jul-15 21:30N 60°10' E 027°37'713.0
2019-Jul-15 21:01N 60°12' E 027°49'816.2
2019-Jul-15 20:30N 60°09' E 028°05'816.1
2019-Jul-15 20:01N 60°07' E 028°20'815.6
2019-Jul-15 19:31N 60°03' E 028°34'816.2
2019-Jul-15 19:00N 60°03' E 028°50'815.7
2019-Jul-15 18:30N 60°02' E 029°06'714.0
2019-Jul-15 18:00N 60°02' E 029°20'1210.4
2019-Jul-15 16:49N 59°59' E 029°44'3 8.9
2019-Jul-15 16:30N 59°58' E 029°49'510.7
2019-Jul-15 16:00N 59°56' E 029°59'5 9.9
2019-Jul-15 15:30N 59°57' E 030°08'1 2.7
2019-Jul-15 14:58N 59°57' E 030°11'0 0.0
2019-Jul-15 14:28N 59°57' E 030°11'0 0.0
2019-Jul-15 13:55N 59°57' E 030°11'0 0.0
2019-Jul-15 13:30N 59°57' E 030°11'0 0.0
2019-Jul-15 12:57N 59°57' E 030°11'0 0.0
2019-Jul-15 12:27N 59°57' E 030°11'0 0.0
2019-Jul-15 12:00N 59°57' E 030°11'0 0.0
2019-Jul-15 11:27N 59°57' E 030°11'0 0.0
2019-Jul-15 10:59N 59°57' E 030°11'0 0.0
2019-Jul-15 10:29N 59°57' E 030°11'0 0.0
2019-Jul-15 09:59N 59°57' E 030°11'0 0.0
2019-Jul-15 09:29N 59°57' E 030°11'0 0.0
2019-Jul-15 08:59N 59°57' E 030°11'0 0.0
2019-Jul-15 08:28N 59°57' E 030°11'0 0.0
2019-Jul-15 07:58N 59°57' E 030°11'0 0.0
2019-Jul-15 07:28N 59°57' E 030°11'0 0.0
2019-Jul-15 06:55N 59°57' E 030°11'0 0.0
2019-Jul-15 06:30N 59°57' E 030°11'0 0.0
2019-Jul-15 05:57N 59°57' E 030°11'0 0.0
2019-Jul-15 05:30N 59°57' E 030°11'0 0.0
2019-Jul-15 05:00N 59°57' E 030°11'0 0.0
2019-Jul-15 04:30N 59°57' E 030°11'0 0.0
2019-Jul-15 03:59N 59°57' E 030°11'0 0.0
2019-Jul-15 03:26N 59°57' E 030°11'0 0.0
2019-Jul-15 02:59N 59°57' E 030°11'0 0.0
2019-Jul-15 02:29N 59°57' E 030°11'0 0.0
2019-Jul-15 01:59N 59°57' E 030°11'0 0.0
2019-Jul-15 01:28N 59°57' E 030°11'0 0.0
2019-Jul-15 00:58N 59°57' E 030°11'0 0.0
2019-Jul-15 00:28N 59°57' E 030°11'0 0.0
2019-Jul-14 23:58N 59°57' E 030°11'0 0.0
2019-Jul-14 23:30N 59°57' E 030°11'0 0.0
2019-Jul-14 23:00N 59°57' E 030°11'0 0.0
2019-Jul-14 22:24N 59°57' E 030°11'0 0.0
2019-Jul-14 22:00N 59°57' E 030°11'0 0.0
2019-Jul-14 21:30N 59°57' E 030°11'0 0.0
2019-Jul-14 20:59N 59°57' E 030°11'0 0.0
2019-Jul-14 20:26N 59°57' E 030°11'0 0.0
2019-Jul-14 19:56N 59°57' E 030°11'0 0.0
2019-Jul-14 19:26N 59°57' E 030°11'0 0.0
2019-Jul-14 18:58N 59°57' E 030°11'0 0.0
2019-Jul-14 18:28N 59°57' E 030°11'0 0.0
2019-Jul-14 17:58N 59°57' E 030°11'0 0.0
2019-Jul-14 17:28N 59°57' E 030°11'0 0.0
2019-Jul-14 16:58N 59°57' E 030°11'0 0.0
2019-Jul-14 16:30N 59°57' E 030°11'0 0.0
2019-Jul-14 16:00N 59°57' E 030°11'0 0.0
2019-Jul-14 15:30N 59°57' E 030°11'0 0.0
2019-Jul-14 15:00N 59°57' E 030°11'0 0.0
2019-Jul-14 14:30N 59°57' E 030°11'0 0.0
2019-Jul-14 13:59N 59°57' E 030°11'0 0.0
2019-Jul-14 13:29N 59°57' E 030°11'0 0.0
2019-Jul-14 12:59N 59°57' E 030°11'0 0.0
2019-Jul-14 12:29N 59°57' E 030°11'0 0.0
2019-Jul-14 11:58N 59°57' E 030°11'0 0.0
2019-Jul-14 11:28N 59°57' E 030°11'0 0.0
2019-Jul-14 10:58N 59°57' E 030°11'0 0.0
2019-Jul-14 10:28N 59°57' E 030°11'0 0.0
2019-Jul-14 09:58N 59°57' E 030°11'0 0.0
2019-Jul-14 09:27N 59°57' E 030°11'0 0.0
2019-Jul-14 09:00N 59°57' E 030°11'0 0.0
2019-Jul-14 08:30N 59°57' E 030°11'0 0.0
2019-Jul-14 07:57N 59°57' E 030°11'0 0.0
2019-Jul-14 07:30N 59°57' E 030°11'0 0.0
2019-Jul-14 06:59N 59°57' E 030°11'0 0.0
2019-Jul-14 06:29N 59°57' E 030°11'0 0.0
2019-Jul-14 05:59N 59°57' E 030°11'0 0.0
2019-Jul-14 05:29N 59°57' E 030°11'0 0.0
2019-Jul-14 04:58N 59°57' E 030°11'0 0.0
2019-Jul-14 04:28N 59°57' E 030°11'0 0.0
2019-Jul-14 03:58N 59°57' E 030°11'0 0.9
2019-Jul-14 03:30N 59°57' E 030°10'4 9.0
2019-Jul-14 03:00N 59°56' E 030°02'510.2
2019-Jul-14 02:30N 59°57' E 029°52'510.1
2019-Jul-14 01:59N 59°59' E 029°43'1011.7
2019-Jul-14 01:10N 60°02' E 029°24'316.6
2019-Jul-14 01:00N 60°02' E 029°18'816.6
2019-Jul-14 00:30N 60°02' E 029°02'917.9
2019-Jul-14 00:00N 60°02' E 028°44'918.1
2019-Jul-13 23:30N 60°03' E 028°26'918.2
2019-Jul-13 23:00N 60°08' E 028°11'918.7
2019-Jul-13 22:30N 60°11' E 027°53'917.6
2019-Jul-13 22:00N 60°08' E 027°36'918.7
2019-Jul-13 21:30N 60°03' E 027°20'918.6
2019-Jul-13 21:00N 59°58' E 027°04'918.7
2019-Jul-13 20:30N 59°59' E 026°46'918.5
2019-Jul-13 20:00N 59°58' E 026°27'815.5
2019-Jul-13 19:30N 59°55' E 026°12'714.9
2019-Jul-13 19:00N 59°53' E 025°58'714.9
2019-Jul-13 18:30N 59°51' E 025°44'714.8
2019-Jul-13 18:00N 59°50' E 025°30'815.1
2019-Jul-13 17:30N 59°48' E 025°15'815.5
2019-Jul-13 17:00N 59°47' E 024°60'815.5
2019-Jul-13 16:30N 59°42' E 024°48'714.0
2019-Jul-13 16:00N 59°35' E 024°42'612.1
2019-Jul-13 15:30N 59°30' E 024°46'3 5.1
2019-Jul-13 14:59N 59°27' E 024°46'0 0.0
2019-Jul-13 14:29N 59°27' E 024°46'0 0.0
2019-Jul-13 13:59N 59°27' E 024°46'0 0.0
2019-Jul-13 13:28N 59°27' E 024°46'0 0.0
2019-Jul-13 12:58N 59°27' E 024°46'0 0.0
2019-Jul-13 12:28N 59°27' E 024°46'0 0.0
2019-Jul-13 11:58N 59°27' E 024°46'0 0.0
2019-Jul-13 11:31N 59°27' E 024°46'0 0.0
2019-Jul-13 11:00N 59°27' E 024°46'0 0.0
2019-Jul-13 10:30N 59°27' E 024°46'0 0.0
2019-Jul-13 10:00N 59°27' E 024°46'0 0.0
2019-Jul-13 09:30N 59°27' E 024°46'3 6.5
2019-Jul-13 09:00N 59°30' E 024°44'713.7
2019-Jul-13 08:30N 59°30' E 024°31'917.1
2019-Jul-13 08:01N 59°30' E 024°14'918.9
2019-Jul-13 07:31N 59°30' E 023°55'919.0
2019-Jul-13 07:01N 59°29' E 023°37'918.9
2019-Jul-13 06:31N 59°30' E 023°18'918.4
2019-Jul-13 06:01N 59°28' E 023°00'918.5
2019-Jul-13 05:30N 59°25' E 022°43'918.6
2019-Jul-13 05:00N 59°21' E 022°26'918.8
2019-Jul-13 04:31N 59°15' E 022°12'918.7
2019-Jul-13 04:01N 59°09' E 021°58'918.8
2019-Jul-13 03:31N 59°03' E 021°44'1818.2
2019-Jul-13 02:31N 58°47' E 021°30'018.9
2019-Jul-13 02:30N 58°46' E 021°29'918.8
2019-Jul-13 02:00N 58°37' E 021°25'1018.9
2019-Jul-13 01:30N 58°28' E 021°21'1418.4
2019-Jul-13 00:44N 58°14' E 021°17'518.3
2019-Jul-13 00:28N 58°09' E 021°16'918.5
2019-Jul-13 00:00N 58°01' E 021°14'1318.6
2019-Jul-12 23:17N 57°47' E 021°10'518.6
2019-Jul-12 23:01N 57°42' E 021°09'8118.4
2019-Jul-12 18:37N 56°24' E 020°34'3816.4
2019-Jul-12 16:17N 55°46' E 020°48'413.1
2019-Jul-12 16:00N 55°45' E 020°54'611.2
2019-Jul-12 15:30N 55°44' E 021°03'3 5.4
2019-Jul-12 15:00N 55°42' E 021°07'0 0.0
2019-Jul-12 14:30N 55°42' E 021°07'0 0.0
2019-Jul-12 14:01N 55°42' E 021°07'  
Track history (hours):
 
Tides and Currents Weather Stations Pressure Air Temp Water Temp Dewpoint Dewpoint Depression Visibility Wind Speed Wind Dir Waves Ship Positions

Costa Pacifica

Last reported at 2019-Jul-22 14:00 UTC. Time now 2019-Jul-22 14:18 UTC.
Position N 68°13' E 012°30'.

Length 290 m; draft 8.3 m.

Type: Ship. MMSI: 247258100.

Date/timePositionNaut miles runAvg speedWind from/ knotsBaromVisibWave heightAir tempDewpointWater temp
2019-Jul-22 14:00N 68°13' E 012°30'1019.3
2019-Jul-22 13:30N 68°05' E 012°15'1019.6
2019-Jul-22 13:00N 67°57' E 012°00'1019.7
2019-Jul-22 12:30N 67°48' E 011°45'1019.7
2019-Jul-22 12:00N 67°40' E 011°30'1019.6
2019-Jul-22 11:30N 67°32' E 011°18'1019.3
2019-Jul-22 11:00N 67°23' E 011°07'1019.2
2019-Jul-22 10:30N 67°14' E 010°56'1019.6
2019-Jul-22 09:59N 67°05' E 010°45'1019.4
2019-Jul-22 09:30N 66°57' E 010°34'919.5
2019-Jul-22 09:01N 66°48' E 010°24'1019.5
2019-Jul-22 08:31N 66°39' E 010°13'1019.5
2019-Jul-22 08:00N 66°30' E 010°03'1019.5
2019-Jul-22 07:30N 66°22' E 009°52'917.9
2019-Jul-22 07:00N 66°13' E 009°43'815.9
2019-Jul-22 06:30N 66°06' E 009°34'816.3
2019-Jul-22 06:00N 65°59' E 009°25'1019.5
2019-Jul-22 05:30N 65°50' E 009°15'919.2
2019-Jul-22 05:00N 65°42' E 009°05'1019.3
2019-Jul-22 04:30N 65°33' E 008°55'1819.3
2019-Jul-22 03:34N 65°16' E 008°36'2119.1
2019-Jul-22 02:27N 64°57' E 008°15'919.0
2019-Jul-22 02:00N 64°50' E 008°06'1019.2
2019-Jul-22 01:30N 64°41' E 007°56'919.2
2019-Jul-22 01:00N 64°32' E 007°47'1019.1
2019-Jul-22 00:30N 64°24' E 007°37'919.1
2019-Jul-22 00:00N 64°15' E 007°28'919.1
2019-Jul-21 23:31N 64°06' E 007°18'1019.2
2019-Jul-21 23:00N 63°58' E 007°09'1019.3
2019-Jul-21 22:30N 63°49' E 006°59'1019.1
2019-Jul-21 22:00N 63°40' E 006°50'1019.2
2019-Jul-21 21:30N 63°32' E 006°40'1019.2
2019-Jul-21 21:00N 63°23' E 006°31'1019.5
2019-Jul-21 20:30N 63°14' E 006°22'1019.8
2019-Jul-21 20:00N 63°05' E 006°13'1019.2
2019-Jul-21 19:30N 62°57' E 006°04'918.8
2019-Jul-21 19:00N 62°48' E 005°55'919.0
2019-Jul-21 18:30N 62°40' E 005°46'917.5
2019-Jul-21 18:00N 62°31' E 005°44'816.4
2019-Jul-21 17:30N 62°27' E 006°00'5 9.8
2019-Jul-21 17:01N 62°28' E 006°11'1 1.7
2019-Jul-21 16:30N 62°28' E 006°09'0 0.0
2019-Jul-21 16:00N 62°28' E 006°09'0 0.0
2019-Jul-21 15:30N 62°28' E 006°09'0 0.0
2019-Jul-21 15:00N 62°28' E 006°09'0 0.0
2019-Jul-21 14:29N 62°28' E 006°09'0 0.0
2019-Jul-21 13:59N 62°28' E 006°09'0 0.0
2019-Jul-21 13:29N 62°28' E 006°09'0 0.0
2019-Jul-21 12:59N 62°28' E 006°09'0 0.0
2019-Jul-21 12:29N 62°28' E 006°09'0 0.0
2019-Jul-21 11:58N 62°28' E 006°09'0 0.0
2019-Jul-21 11:28N 62°28' E 006°09'0 0.0
2019-Jul-21 10:58N 62°28' E 006°09'0 0.0
2019-Jul-21 10:28N 62°28' E 006°09'0 0.0
2019-Jul-21 09:58N 62°28' E 006°09'0 0.0
2019-Jul-21 09:30N 62°28' E 006°09'0 0.0
2019-Jul-21 09:00N 62°28' E 006°09'0 0.0
2019-Jul-21 08:30N 62°28' E 006°09'1 1.0
2019-Jul-21 08:00N 62°28' E 006°10'2 4.5
2019-Jul-21 07:30N 62°27' E 006°06'510.0
2019-Jul-21 07:00N 62°27' E 005°55'918.4
2019-Jul-21 06:30N 62°30' E 005°36'1019.1
2019-Jul-21 06:00N 62°25' E 005°20'1019.1
2019-Jul-21 05:29N 62°19' E 005°03'919.0
2019-Jul-21 04:59N 62°13' E 004°48'919.1
2019-Jul-21 04:30N 62°07' E 004°33'1019.2
2019-Jul-21 04:00N 62°01' E 004°17'918.6
2019-Jul-21 03:30N 61°52' E 004°11'1019.4
2019-Jul-21 03:00N 61°42' E 004°08'1019.7
2019-Jul-21 02:29N 61°32' E 004°07'1019.4
2019-Jul-21 02:00N 61°23' E 004°06'1019.6
2019-Jul-21 01:30N 61°13' E 004°05'1019.6
2019-Jul-21 01:00N 61°03' E 004°04'1019.6
2019-Jul-21 00:30N 60°53' E 004°05'1019.8
2019-Jul-21 00:00N 60°44' E 004°06'1019.5
2019-Jul-20 23:30N 60°34' E 004°07'1019.8
2019-Jul-20 23:00N 60°24' E 004°08'1019.8
2019-Jul-20 22:30N 60°14' E 004°09'1019.8
2019-Jul-20 22:00N 60°04' E 004°09'1019.8
2019-Jul-20 21:30N 59°54' E 004°09'1019.8
2019-Jul-20 21:00N 59°44' E 004°10'1019.8
2019-Jul-20 20:30N 59°34' E 004°10'1019.5
2019-Jul-20 20:00N 59°24' E 004°10'1019.3
2019-Jul-20 19:30N 59°15' E 004°10'919.0
2019-Jul-20 19:00N 59°05' E 004°10'918.2
2019-Jul-20 18:30N 58°57' E 004°19'918.6
2019-Jul-20 18:00N 58°51' E 004°31'918.4
2019-Jul-20 17:30N 58°44' E 004°43'918.6
2019-Jul-20 17:00N 58°37' E 004°55'918.9
2019-Jul-20 16:30N 58°30' E 005°07'1019.0
2019-Jul-20 16:00N 58°23' E 005°20'1019.1
2019-Jul-20 15:30N 58°16' E 005°33'1019.2
2019-Jul-20 15:00N 58°10' E 005°47'1019.4
2019-Jul-20 14:30N 58°04' E 006°01'1019.6
2019-Jul-20 14:00N 57°58' E 006°15'1019.5
2019-Jul-20 13:30N 57°52' E 006°29'918.7
2019-Jul-20 13:00N 57°47' E 006°44'1019.0
2019-Jul-20 12:30N 57°46' E 007°02'918.9
2019-Jul-20 12:00N 57°45' E 007°20'919.0
2019-Jul-20 11:30N 57°45' E 007°37'918.9
2019-Jul-20 11:00N 57°46' E 007°55'918.6
2019-Jul-20 10:30N 57°46' E 008°13'918.8
2019-Jul-20 10:00N 57°47' E 008°30'918.6
2019-Jul-20 09:30N 57°48' E 008°48'918.7
2019-Jul-20 09:00N 57°48' E 009°05'918.5
2019-Jul-20 08:30N 57°49' E 009°23'918.7
2019-Jul-20 08:00N 57°50' E 009°40'918.9
2019-Jul-20 07:30N 57°50' E 009°57'1019.1
2019-Jul-20 07:00N 57°51' E 010°15'918.9
2019-Jul-20 06:30N 57°51' E 010°33'917.1
2019-Jul-20 06:00N 57°48' E 010°48'918.5
2019-Jul-20 05:30N 57°41' E 011°00'918.8
2019-Jul-20 05:00N 57°35' E 011°14'1019.0
2019-Jul-20 04:30N 57°29' E 011°26'1019.7
2019-Jul-20 04:00N 57°20' E 011°33'918.4
2019-Jul-20 03:30N 57°11' E 011°38'917.7
2019-Jul-20 03:00N 57°02' E 011°43'918.2
2019-Jul-20 02:30N 56°54' E 011°49'918.0
2019-Jul-20 02:00N 56°45' E 011°54'918.2
2019-Jul-20 01:30N 56°37' E 011°46'918.6
2019-Jul-20 01:00N 56°29' E 011°37'918.3
2019-Jul-20 00:30N 56°21' E 011°29'918.3
2019-Jul-20 00:00N 56°13' E 011°21'918.4
2019-Jul-19 23:30N 56°07' E 011°10'1119.2
2019-Jul-19 22:57N 55°57' E 011°00'2817.2
2019-Jul-19 21:21N 55°30' E 010°53'618.3
2019-Jul-19 21:00N 55°25' E 010°60'816.5
2019-Jul-19 20:30N 55°17' E 011°04'917.2
2019-Jul-19 20:00N 55°08' E 011°03'918.5
2019-Jul-19 19:30N 54°59' E 011°01'816.4
2019-Jul-19 19:00N 54°52' E 010°53'816.9
2019-Jul-19 18:30N 54°44' E 010°53'816.7
2019-Jul-19 18:00N 54°38' E 010°44'917.9
2019-Jul-19 17:30N 54°32' E 010°32'816.1
2019-Jul-19 17:01N 54°29' E 010°19'611.7
2019-Jul-19 16:30N 54°25' E 010°13'5 9.5
2019-Jul-19 16:00N 54°20' E 010°10'1 1.6
2019-Jul-19 15:29N 54°20' E 010°09'0 0.0
2019-Jul-19 14:58N 54°20' E 010°09'0 0.0
2019-Jul-19 14:28N 54°20' E 010°09'0 0.0
2019-Jul-19 13:58N 54°20' E 010°09'0 0.0
2019-Jul-19 13:28N 54°20' E 010°09'0 0.0
2019-Jul-19 12:57N 54°20' E 010°09'0 0.0
2019-Jul-19 12:30N 54°20' E 010°09'0 0.0
2019-Jul-19 11:57N 54°20' E 010°09'0 0.0
2019-Jul-19 11:30N 54°20' E 010°09'0 0.0
2019-Jul-19 11:00N 54°20' E 010°09'0 0.0
2019-Jul-19 10:29N 54°20' E 010°09'0 0.0
2019-Jul-19 09:59N 54°20' E 010°09'0 0.0
2019-Jul-19 09:29N 54°20' E 010°09'0 0.0
2019-Jul-19 08:59N 54°20' E 010°09'0 0.0
2019-Jul-19 08:28N 54°20' E 010°09'0 0.0
2019-Jul-19 07:55N 54°20' E 010°09'0 0.0
2019-Jul-19 07:25N 54°20' E 010°09'0 0.0
2019-Jul-19 06:58N 54°20' E 010°09'0 0.0
2019-Jul-19 06:28N 54°20' E 010°09'0 0.0
2019-Jul-19 06:00N 54°20' E 010°09'0 0.7
2019-Jul-19 05:30N 54°20' E 010°09'3 5.7
2019-Jul-19 05:00N 54°22' E 010°11'613.0
2019-Jul-19 04:31N 54°28' E 010°16'714.0
2019-Jul-19 04:00N 54°32' E 010°26'918.6
2019-Jul-19 03:30N 54°35' E 010°41'919.0
2019-Jul-19 03:00N 54°36' E 010°57'917.6
2019-Jul-19 02:30N 54°36' E 011°13'918.1
2019-Jul-19 02:01N 54°32' E 011°26'919.0
2019-Jul-19 01:31N 54°28' E 011°41'918.8
2019-Jul-19 01:01N 54°26' E 011°57'916.9
2019-Jul-19 00:30N 54°29' E 012°11'917.6
2019-Jul-19 00:01N 54°38' E 012°15'918.8
2019-Jul-18 23:31N 54°42' E 012°29'918.2
2019-Jul-18 23:01N 54°48' E 012°42'918.1
2019-Jul-18 22:31N 54°51' E 012°57'918.6
2019-Jul-18 22:01N 54°54' E 013°12'918.9
2019-Jul-18 21:31N 54°58' E 013°27'918.7
2019-Jul-18 21:01N 55°01' E 013°43'918.5
2019-Jul-18 20:31N 55°04' E 013°58'918.2
2019-Jul-18 20:01N 55°10' E 014°10'918.7
2019-Jul-18 19:31N 55°17' E 014°20'918.7
2019-Jul-18 19:01N 55°24' E 014°32'918.6
2019-Jul-18 18:30N 55°29' E 014°45'918.4
2019-Jul-18 18:01N 55°34' E 014°58'918.4
2019-Jul-18 17:30N 55°39' E 015°12'917.7
2019-Jul-18 17:00N 55°43' E 015°26'917.5
2019-Jul-18 16:30N 55°47' E 015°40'917.6
2019-Jul-18 16:00N 55°52' E 015°53'917.7
2019-Jul-18 15:31N 55°56' E 016°07'816.6
2019-Jul-18 15:01N 56°00' E 016°20'714.7
2019-Jul-18 14:30N 56°05' E 016°31'714.5
2019-Jul-18 14:00N 56°09' E 016°41'714.2
2019-Jul-18 13:31N 56°15' E 016°48'714.4
2019-Jul-18 13:00N 56°21' E 016°54'714.3
2019-Jul-18 12:31N 56°28' E 016°59'714.5
2019-Jul-18 12:00N 56°35' E 017°04'1514.4
2019-Jul-18 10:59N 56°48' E 017°14'5614.9
2019-Jul-18 07:13N 57°40' E 017°54'1115.3
2019-Jul-18 06:31N 57°49' E 018°04'315.5
2019-Jul-18 06:19N 57°52' E 018°08'515.7
2019-Jul-18 06:00N 57°56' E 018°12'915.7
2019-Jul-18 05:27N 58°04' E 018°20'715.3
2019-Jul-18 04:59N 58°10' E 018°27'715.3
2019-Jul-18 04:30N 58°16' E 018°34'815.2
2019-Jul-18 04:00N 58°23' E 018°42'915.0
2019-Jul-18 03:26N 58°30' E 018°50'2515.1
2019-Jul-18 01:45N 58°52' E 019°16'1115.6
2019-Jul-18 01:03N 59°01' E 019°27'415.6
2019-Jul-18 00:46N 59°05' E 019°31'615.2
2019-Jul-18 00:23N 59°10' E 019°37'715.0
2019-Jul-17 23:56N 59°16' E 019°44'1115.1
2019-Jul-17 23:11N 59°26' E 019°54'214.6
2019-Jul-17 23:01N 59°28' E 019°56'815.0
2019-Jul-17 22:29N 59°36' E 019°58'814.9
2019-Jul-17 21:55N 59°43' E 019°48'615.0
2019-Jul-17 21:30N 59°46' E 019°38'815.1
2019-Jul-17 21:00N 59°46' E 019°23'713.9
2019-Jul-17 20:30N 59°44' E 019°10'816.1
2019-Jul-17 20:00N 59°40' E 018°56'510.6
2019-Jul-17 19:30N 59°37' E 018°48'611.6
2019-Jul-17 18:58N 59°34' E 018°37'5 9.5
2019-Jul-17 18:27N 59°31' E 018°30'511.1
2019-Jul-17 18:00N 59°27' E 018°24'5 9.3
2019-Jul-17 17:31N 59°22' E 018°27'4 8.5
2019-Jul-17 17:00N 59°23' E 018°19'611.2
2019-Jul-17 16:30N 59°19' E 018°10'2 3.7
2019-Jul-17 15:59N 59°19' E 018°06'0 0.0
2019-Jul-17 15:29N 59°19' E 018°06'0 0.0
2019-Jul-17 14:59N 59°19' E 018°06'0 0.0
2019-Jul-17 14:25N 59°19' E 018°06'0 0.0
2019-Jul-17 13:58N 59°19' E 018°06'0 0.0
2019-Jul-17 13:30N 59°19' E 018°06'0 0.0
2019-Jul-17 12:58N 59°19' E 018°06'0 0.0
2019-Jul-17 12:28N 59°19' E 018°06'0 0.0
2019-Jul-17 12:00N 59°19' E 018°06'0 0.0
2019-Jul-17 11:30N 59°19' E 018°06'0 0.0
2019-Jul-17 11:00N 59°19' E 018°06'0 0.0
2019-Jul-17 10:30N 59°19' E 018°06'0 0.0
2019-Jul-17 10:00N 59°19' E 018°06'0 0.0
2019-Jul-17 09:29N 59°19' E 018°06'0 0.0
2019-Jul-17 08:59N 59°19' E 018°06'0 0.0
2019-Jul-17 08:29N 59°19' E 018°06'0 0.0
2019-Jul-17 07:59N 59°19' E 018°06'0 0.0
2019-Jul-17 07:28N 59°19' E 018°06'0 0.0
2019-Jul-17 06:58N 59°19' E 018°06'0 0.4
2019-Jul-17 06:30N 59°19' E 018°06'4 8.5
2019-Jul-17 06:00N 59°21' E 018°14'510.3
2019-Jul-17 05:30N 59°22' E 018°24'3 5.1
2019-Jul-17 05:00N 59°25' E 018°25'4 8.9
2019-Jul-17 04:30N 59°29' E 018°27'510.0
2019-Jul-17 04:00N 59°32' E 018°34'510.3
2019-Jul-17 03:30N 59°35' E 018°43'612.2
2019-Jul-17 03:00N 59°38' E 018°53'611.2
2019-Jul-17 02:27N 59°42' E 019°02'818.0
2019-Jul-17 02:01N 59°45' E 019°17'713.4
2019-Jul-17 01:29N 59°47' E 019°31'1016.9
2019-Jul-17 00:53N 59°45' E 019°50'918.4
2019-Jul-17 00:25N 59°38' E 020°02'1417.7
2019-Jul-16 23:38N 59°35' E 020°28'1718.7
2019-Jul-16 22:43N 59°31' E 021°01'418.0
2019-Jul-16 22:31N 59°29' E 021°07'1017.7
2019-Jul-16 21:56N 59°21' E 021°20'819.0
2019-Jul-16 21:30N 59°23' E 021°36'1019.2
2019-Jul-16 21:01N 59°27' E 021°53'1119.1
2019-Jul-16 20:26N 59°26' E 022°15'818.2
2019-Jul-16 20:00N 59°29' E 022°29'919.0
2019-Jul-16 19:30N 59°33' E 022°46'1019.4
2019-Jul-16 19:00N 59°36' E 023°04'1019.3
2019-Jul-16 18:31N 59°38' E 023°23'1019.1
2019-Jul-16 18:00N 59°41' E 023°41'1019.1
2019-Jul-16 17:31N 59°44' E 023°59'1019.3
2019-Jul-16 17:00N 59°48' E 024°16'1019.1
2019-Jul-16 16:31N 59°53' E 024°33'918.9
2019-Jul-16 16:01N 59°58' E 024°49'612.2
2019-Jul-16 15:30N 60°03' E 024°54'611.3
2019-Jul-16 15:00N 60°09' E 024°55'0 0.3
2019-Jul-16 14:28N 60°09' E 024°55'0 0.0
2019-Jul-16 13:58N 60°09' E 024°55'0 0.2
2019-Jul-16 13:38N 60°09' E 024°55'0 0.3
2019-Jul-16 13:32N 60°09' E 024°55'0 1.9
2019-Jul-16 13:30N 60°09' E 024°55'0 0.0
2019-Jul-16 13:00N 60°09' E 024°55'0 0.2
2019-Jul-16 12:46N 60°09' E 024°55'0 0.2
2019-Jul-16 12:30N 60°09' E 024°55'0 0.0
2019-Jul-16 12:00N 60°09' E 024°55'0 0.0
2019-Jul-16 11:29N 60°09' E 024°55'0 0.0
2019-Jul-16 10:59N 60°09' E 024°55'0 0.0
2019-Jul-16 10:29N 60°09' E 024°55'0 0.0
2019-Jul-16 09:59N 60°09' E 024°55'0 0.0
2019-Jul-16 09:29N 60°09' E 024°55'0 0.0
2019-Jul-16 08:58N 60°09' E 024°55'0 0.0
2019-Jul-16 08:28N 60°09' E 024°55'0 0.0
2019-Jul-16 07:58N 60°09' E 024°55'0 0.0
2019-Jul-16 07:28N 60°09' E 024°55'0 0.0
2019-Jul-16 07:01N 60°09' E 024°55'0 0.0
2019-Jul-16 06:30N 60°09' E 024°55'0 0.0
2019-Jul-16 06:00N 60°09' E 024°55'0 0.0
2019-Jul-16 05:30N 60°09' E 024°55'0 0.0
2019-Jul-16 05:00N 60°09' E 024°55'0 0.0
2019-Jul-16 04:30N 60°09' E 024°55'1 1.6
2019-Jul-16 04:00N 60°08' E 024°54'611.9
2019-Jul-16 03:30N 60°02' E 024°55'714.5
2019-Jul-16 03:01N 59°57' E 025°04'918.9
2019-Jul-16 02:31N 59°55' E 025°23'918.5
2019-Jul-16 02:00N 59°55' E 025°41'815.4
2019-Jul-16 01:30N 59°57' E 025°56'813.7
2019-Jul-16 00:56N 59°59' E 026°11'613.5
2019-Jul-16 00:30N 59°60' E 026°23'713.3
2019-Jul-16 00:00N 60°01' E 026°36'713.5
2019-Jul-15 23:30N 60°00' E 026°49'713.3
2019-Jul-15 23:00N 59°59' E 027°02'713.5
2019-Jul-15 22:30N 60°03' E 027°14'713.6
2019-Jul-15 22:00N 60°06' E 027°25'713.4
2019-Jul-15 21:30N 60°10' E 027°37'713.0
2019-Jul-15 21:01N 60°12' E 027°49'816.2
2019-Jul-15 20:30N 60°09' E 028°05'816.1
2019-Jul-15 20:01N 60°07' E 028°20'815.6
2019-Jul-15 19:31N 60°03' E 028°34'816.2
2019-Jul-15 19:00N 60°03' E 028°50'815.7
2019-Jul-15 18:30N 60°02' E 029°06'714.0
2019-Jul-15 18:00N 60°02' E 029°20'1210.4
2019-Jul-15 16:49N 59°59' E 029°44'3 8.9
2019-Jul-15 16:30N 59°58' E 029°49'510.7
2019-Jul-15 16:00N 59°56' E 029°59'5 9.9
2019-Jul-15 15:30N 59°57' E 030°08'1 2.7
2019-Jul-15 14:58N 59°57' E 030°11'0 0.0
2019-Jul-15 14:28N 59°57' E 030°11'0 0.0
2019-Jul-15 13:55N 59°57' E 030°11'0 0.0
2019-Jul-15 13:30N 59°57' E 030°11'0 0.0
2019-Jul-15 12:57N 59°57' E 030°11'0 0.0
2019-Jul-15 12:27N 59°57' E 030°11'0 0.0
2019-Jul-15 12:00N 59°57' E 030°11'0 0.0
2019-Jul-15 11:27N 59°57' E 030°11'0 0.0
2019-Jul-15 10:59N 59°57' E 030°11'0 0.0
2019-Jul-15 10:29N 59°57' E 030°11'0 0.0
2019-Jul-15 09:59N 59°57' E 030°11'0 0.0
2019-Jul-15 09:29N 59°57' E 030°11'0 0.0
2019-Jul-15 08:59N 59°57' E 030°11'0 0.0
2019-Jul-15 08:28N 59°57' E 030°11'0 0.0
2019-Jul-15 07:58N 59°57' E 030°11'0 0.0
2019-Jul-15 07:28N 59°57' E 030°11'0 0.0
2019-Jul-15 06:55N 59°57' E 030°11'0 0.0
2019-Jul-15 06:30N 59°57' E 030°11'0 0.0
2019-Jul-15 05:57N 59°57' E 030°11'0 0.0
2019-Jul-15 05:30N 59°57' E 030°11'0 0.0
2019-Jul-15 05:00N 59°57' E 030°11'0 0.0
2019-Jul-15 04:30N 59°57' E 030°11'0 0.0
2019-Jul-15 03:59N 59°57' E 030°11'0 0.0
2019-Jul-15 03:26N 59°57' E 030°11'0 0.0
2019-Jul-15 02:59N 59°57' E 030°11'0 0.0
2019-Jul-15 02:29N 59°57' E 030°11'0 0.0
2019-Jul-15 01:59N 59°57' E 030°11'0 0.0
2019-Jul-15 01:28N 59°57' E 030°11'0 0.0
2019-Jul-15 00:58N 59°57' E 030°11'0 0.0
2019-Jul-15 00:28N 59°57' E 030°11'0 0.0
2019-Jul-14 23:58N 59°57' E 030°11'0 0.0
2019-Jul-14 23:30N 59°57' E 030°11'0 0.0
2019-Jul-14 23:00N 59°57' E 030°11'0 0.0
2019-Jul-14 22:24N 59°57' E 030°11'0 0.0
2019-Jul-14 22:00N 59°57' E 030°11'0 0.0
2019-Jul-14 21:30N 59°57' E 030°11'0 0.0
2019-Jul-14 20:59N 59°57' E 030°11'0 0.0
2019-Jul-14 20:26N 59°57' E 030°11'0 0.0
2019-Jul-14 19:56N 59°57' E 030°11'0 0.0
2019-Jul-14 19:26N 59°57' E 030°11'0 0.0
2019-Jul-14 18:58N 59°57' E 030°11'0 0.0
2019-Jul-14 18:28N 59°57' E 030°11'0 0.0
2019-Jul-14 17:58N 59°57' E 030°11'0 0.0
2019-Jul-14 17:28N 59°57' E 030°11'0 0.0
2019-Jul-14 16:58N 59°57' E 030°11'0 0.0
2019-Jul-14 16:30N 59°57' E 030°11'0 0.0
2019-Jul-14 16:00N 59°57' E 030°11'0 0.0
2019-Jul-14 15:30N 59°57' E 030°11'0 0.0
2019-Jul-14 15:00N 59°57' E 030°11'0 0.0
2019-Jul-14 14:30N 59°57' E 030°11'0 0.0
2019-Jul-14 13:59N 59°57' E 030°11'0 0.0
2019-Jul-14 13:29N 59°57' E 030°11'0 0.0
2019-Jul-14 12:59N 59°57' E 030°11'0 0.0
2019-Jul-14 12:29N 59°57' E 030°11'0 0.0
2019-Jul-14 11:58N 59°57' E 030°11'0 0.0
2019-Jul-14 11:28N 59°57' E 030°11'0 0.0
2019-Jul-14 10:58N 59°57' E 030°11'0 0.0
2019-Jul-14 10:28N 59°57' E 030°11'0 0.0
2019-Jul-14 09:58N 59°57' E 030°11'0 0.0
2019-Jul-14 09:27N 59°57' E 030°11'0 0.0
2019-Jul-14 09:00N 59°57' E 030°11'0 0.0
2019-Jul-14 08:30N 59°57' E 030°11'0 0.0
2019-Jul-14 07:57N 59°57' E 030°11'0 0.0
2019-Jul-14 07:30N 59°57' E 030°11'0 0.0
2019-Jul-14 06:59N 59°57' E 030°11'0 0.0
2019-Jul-14 06:29N 59°57' E 030°11'0 0.0
2019-Jul-14 05:59N 59°57' E 030°11'0 0.0
2019-Jul-14 05:29N 59°57' E 030°11'0 0.0
2019-Jul-14 04:58N 59°57' E 030°11'0 0.0
2019-Jul-14 04:28N 59°57' E 030°11'0 0.0
2019-Jul-14 03:58N 59°57' E 030°11'0 0.9
2019-Jul-14 03:30N 59°57' E 030°10'4 9.0
2019-Jul-14 03:00N 59°56' E 030°02'510.2
2019-Jul-14 02:30N 59°57' E 029°52'510.1
2019-Jul-14 01:59N 59°59' E 029°43'1011.7
2019-Jul-14 01:10N 60°02' E 029°24'316.6
2019-Jul-14 01:00N 60°02' E 029°18'816.6
2019-Jul-14 00:30N 60°02' E 029°02'917.9
2019-Jul-14 00:00N 60°02' E 028°44'918.1
2019-Jul-13 23:30N 60°03' E 028°26'918.2
2019-Jul-13 23:00N 60°08' E 028°11'918.7
2019-Jul-13 22:30N 60°11' E 027°53'917.6
2019-Jul-13 22:00N 60°08' E 027°36'918.7
2019-Jul-13 21:30N 60°03' E 027°20'918.6
2019-Jul-13 21:00N 59°58' E 027°04'918.7
2019-Jul-13 20:30N 59°59' E 026°46'918.5
2019-Jul-13 20:00N 59°58' E 026°27'815.5
2019-Jul-13 19:30N 59°55' E 026°12'714.9
2019-Jul-13 19:00N 59°53' E 025°58'714.9
2019-Jul-13 18:30N 59°51' E 025°44'714.8
2019-Jul-13 18:00N 59°50' E 025°30'815.1
2019-Jul-13 17:30N 59°48' E 025°15'815.5
2019-Jul-13 17:00N 59°47' E 024°60'815.5
2019-Jul-13 16:30N 59°42' E 024°48'714.0
2019-Jul-13 16:00N 59°35' E 024°42'612.1
2019-Jul-13 15:30N 59°30' E 024°46'3 5.1
2019-Jul-13 14:59N 59°27' E 024°46'0 0.0
2019-Jul-13 14:29N 59°27' E 024°46'0 0.0
2019-Jul-13 13:59N 59°27' E 024°46'0 0.0
2019-Jul-13 13:28N 59°27' E 024°46'0 0.0
2019-Jul-13 12:58N 59°27' E 024°46'0 0.0
2019-Jul-13 12:28N 59°27' E 024°46'0 0.0
2019-Jul-13 11:58N 59°27' E 024°46'0 0.0
2019-Jul-13 11:31N 59°27' E 024°46'0 0.0
2019-Jul-13 11:00N 59°27' E 024°46'0 0.0
2019-Jul-13 10:30N 59°27' E 024°46'0 0.0
2019-Jul-13 10:00N 59°27' E 024°46'0 0.0
2019-Jul-13 09:30N 59°27' E 024°46'3 6.5
2019-Jul-13 09:00N 59°30' E 024°44'713.7
2019-Jul-13 08:30N 59°30' E 024°31'917.1
2019-Jul-13 08:01N 59°30' E 024°14'918.9
2019-Jul-13 07:31N 59°30' E 023°55'919.0
2019-Jul-13 07:01N 59°29' E 023°37'918.9
2019-Jul-13 06:31N 59°30' E 023°18'918.4
2019-Jul-13 06:01N 59°28' E 023°00'918.5
2019-Jul-13 05:30N 59°25' E 022°43'918.6
2019-Jul-13 05:00N 59°21' E 022°26'918.8
2019-Jul-13 04:31N 59°15' E 022°12'918.7
2019-Jul-13 04:01N 59°09' E 021°58'918.8
2019-Jul-13 03:31N 59°03' E 021°44'1818.2
2019-Jul-13 02:31N 58°47' E 021°30'018.9
2019-Jul-13 02:30N 58°46' E 021°29'918.8
2019-Jul-13 02:00N 58°37' E 021°25'1018.9
2019-Jul-13 01:30N 58°28' E 021°21'1418.4
2019-Jul-13 00:44N 58°14' E 021°17'518.3
2019-Jul-13 00:28N 58°09' E 021°16'918.5
2019-Jul-13 00:00N 58°01' E 021°14'1318.6
2019-Jul-12 23:17N 57°47' E 021°10'518.6
2019-Jul-12 23:01N 57°42' E 021°09'8118.4
2019-Jul-12 18:37N 56°24' E 020°34'3816.4
2019-Jul-12 16:17N 55°46' E 020°48'413.1
2019-Jul-12 16:00N 55°45' E 020°54'611.2
2019-Jul-12 15:30N 55°44' E 021°03'3 5.4
2019-Jul-12 15:00N 55°42' E 021°07'0 0.0
2019-Jul-12 14:30N 55°42' E 021°07'0 0.0
2019-Jul-12 14:01N 55°42' E 021°07'  

Dump ship's entire track history